sensor_id;sensor_type;location;lat;lon;timestamp;P1;durP1;ratioP1;P2;durP2;ratioP2
10523;SDS011;5310;48.638;9.060;2023-12-29T00:00:41;1.13;;;1.13;;
10523;SDS011;5310;48.638;9.060;2023-12-29T00:03:07;1.10;;;1.10;;
10523;SDS011;5310;48.638;9.060;2023-12-29T00:05:33;1.20;;;1.20;;
10523;SDS011;5310;48.638;9.060;2023-12-29T00:07:59;1.00;;;1.00;;
10523;SDS011;5310;48.638;9.060;2023-12-29T00:10:25;1.00;;;1.00;;
10523;SDS011;5310;48.638;9.060;2023-12-29T00:12:51;1.00;;;1.00;;
10523;SDS011;5310;48.638;9.060;2023-12-29T00:15:17;0.90;;;0.90;;
10523;SDS011;5310;48.638;9.060;2023-12-29T00:17:43;1.00;;;1.00;;
10523;SDS011;5310;48.638;9.060;2023-12-29T00:20:09;1.00;;;1.00;;
10523;SDS011;5310;48.638;9.060;2023-12-29T00:22:35;1.07;;;1.07;;
10523;SDS011;5310;48.638;9.060;2023-12-29T00:25:01;1.00;;;1.00;;
10523;SDS011;5310;48.638;9.060;2023-12-29T00:27:27;0.90;;;0.90;;
10523;SDS011;5310;48.638;9.060;2023-12-29T00:29:53;1.00;;;1.00;;
10523;SDS011;5310;48.638;9.060;2023-12-29T00:32:19;1.00;;;1.00;;
10523;SDS011;5310;48.638;9.060;2023-12-29T00:34:45;1.00;;;1.00;;
10523;SDS011;5310;48.638;9.060;2023-12-29T00:37:11;1.00;;;1.00;;
10523;SDS011;5310;48.638;9.060;2023-12-29T00:39:37;1.00;;;1.00;;
10523;SDS011;5310;48.638;9.060;2023-12-29T00:42:04;1.07;;;1.07;;
10523;SDS011;5310;48.638;9.060;2023-12-29T00:44:31;0.93;;;0.93;;
10523;SDS011;5310;48.638;9.060;2023-12-29T00:46:56;1.00;;;1.00;;
10523;SDS011;5310;48.638;9.060;2023-12-29T00:49:23;1.00;;;1.00;;
10523;SDS011;5310;48.638;9.060;2023-12-29T00:51:49;1.00;;;1.00;;
10523;SDS011;5310;48.638;9.060;2023-12-29T00:54:15;1.00;;;1.00;;
10523;SDS011;5310;48.638;9.060;2023-12-29T00:56:41;1.00;;;1.00;;
10523;SDS011;5310;48.638;9.060;2023-12-29T00:59:07;1.00;;;1.00;;
10523;SDS011;5310;48.638;9.060;2023-12-29T01:01:33;1.00;;;1.00;;
10523;SDS011;5310;48.638;9.060;2023-12-29T01:04:00;1.00;;;1.00;;
10523;SDS011;5310;48.638;9.060;2023-12-29T01:06:26;1.00;;;1.00;;
10523;SDS011;5310;48.638;9.060;2023-12-29T01:08:52;0.90;;;0.90;;
10523;SDS011;5310;48.638;9.060;2023-12-29T01:11:18;1.00;;;1.00;;
10523;SDS011;5310;48.638;9.060;2023-12-29T01:13:43;1.00;;;1.00;;
10523;SDS011;5310;48.638;9.060;2023-12-29T01:16:09;0.97;;;0.97;;
10523;SDS011;5310;48.638;9.060;2023-12-29T01:18:35;1.03;;;1.03;;
10523;SDS011;5310;48.638;9.060;2023-12-29T01:21:01;0.90;;;0.90;;
10523;SDS011;5310;48.638;9.060;2023-12-29T01:23:27;1.00;;;1.00;;
10523;SDS011;5310;48.638;9.060;2023-12-29T01:25:53;1.07;;;1.07;;
10523;SDS011;5310;48.638;9.060;2023-12-29T01:28:19;1.00;;;1.00;;
10523;SDS011;5310;48.638;9.060;2023-12-29T01:30:45;1.10;;;1.10;;
10523;SDS011;5310;48.638;9.060;2023-12-29T01:33:11;1.00;;;1.00;;
10523;SDS011;5310;48.638;9.060;2023-12-29T01:35:38;1.00;;;1.00;;
10523;SDS011;5310;48.638;9.060;2023-12-29T01:38:04;1.00;;;1.00;;
10523;SDS011;5310;48.638;9.060;2023-12-29T01:40:30;1.03;;;1.03;;
10523;SDS011;5310;48.638;9.060;2023-12-29T01:42:55;1.00;;;1.00;;
10523;SDS011;5310;48.638;9.060;2023-12-29T01:45:22;1.00;;;1.00;;
10523;SDS011;5310;48.638;9.060;2023-12-29T01:47:49;0.90;;;0.90;;
10523;SDS011;5310;48.638;9.060;2023-12-29T01:50:16;1.00;;;1.00;;
10523;SDS011;5310;48.638;9.060;2023-12-29T01:52:43;1.00;;;1.00;;
10523;SDS011;5310;48.638;9.060;2023-12-29T01:55:10;1.00;;;1.00;;
10523;SDS011;5310;48.638;9.060;2023-12-29T01:57:40;0.90;;;0.90;;
10523;SDS011;5310;48.638;9.060;2023-12-29T02:00:07;1.00;;;1.00;;
10523;SDS011;5310;48.638;9.060;2023-12-29T02:02:33;1.00;;;1.00;;
10523;SDS011;5310;48.638;9.060;2023-12-29T02:04:59;1.00;;;1.00;;
10523;SDS011;5310;48.638;9.060;2023-12-29T02:07:26;0.97;;;0.97;;
10523;SDS011;5310;48.638;9.060;2023-12-29T02:09:55;1.00;;;1.00;;
10523;SDS011;5310;48.638;9.060;2023-12-29T02:12:22;1.00;;;1.00;;
10523;SDS011;5310;48.638;9.060;2023-12-29T02:14:48;1.00;;;1.00;;
10523;SDS011;5310;48.638;9.060;2023-12-29T02:17:15;1.00;;;1.00;;
10523;SDS011;5310;48.638;9.060;2023-12-29T02:19:51;1.00;;;1.00;;
10523;SDS011;5310;48.638;9.060;2023-12-29T02:22:17;1.00;;;1.00;;
10523;SDS011;5310;48.638;9.060;2023-12-29T02:24:47;1.00;;;1.00;;
10523;SDS011;5310;48.638;9.060;2023-12-29T02:32:38;1.00;;;1.00;;
10523;SDS011;5310;48.638;9.060;2023-12-29T02:35:05;1.00;;;1.00;;
10523;SDS011;5310;48.638;9.060;2023-12-29T02:37:35;1.07;;;1.07;;
10523;SDS011;5310;48.638;9.060;2023-12-29T02:40:04;1.00;;;1.00;;
10523;SDS011;5310;48.638;9.060;2023-12-29T02:42:30;0.90;;;0.90;;
10523;SDS011;5310;48.638;9.060;2023-12-29T02:44:56;1.00;;;1.00;;
10523;SDS011;5310;48.638;9.060;2023-12-29T02:47:22;1.10;;;1.10;;
10523;SDS011;5310;48.638;9.060;2023-12-29T02:49:48;1.03;;;1.03;;
10523;SDS011;5310;48.638;9.060;2023-12-29T02:52:15;0.90;;;0.90;;
10523;SDS011;5310;48.638;9.060;2023-12-29T02:54:41;1.00;;;1.00;;
10523;SDS011;5310;48.638;9.060;2023-12-29T02:57:07;1.00;;;1.00;;
10523;SDS011;5310;48.638;9.060;2023-12-29T02:59:33;1.00;;;1.00;;
10523;SDS011;5310;48.638;9.060;2023-12-29T03:01:59;1.10;;;1.10;;
10523;SDS011;5310;48.638;9.060;2023-12-29T03:04:25;1.00;;;1.00;;
10523;SDS011;5310;48.638;9.060;2023-12-29T03:06:51;0.93;;;0.93;;
10523;SDS011;5310;48.638;9.060;2023-12-29T03:09:17;0.90;;;0.90;;
10523;SDS011;5310;48.638;9.060;2023-12-29T03:11:42;1.00;;;1.00;;
10523;SDS011;5310;48.638;9.060;2023-12-29T03:14:08;1.10;;;1.10;;
10523;SDS011;5310;48.638;9.060;2023-12-29T03:16:34;1.00;;;1.00;;
10523;SDS011;5310;48.638;9.060;2023-12-29T03:19:00;1.10;;;1.10;;
10523;SDS011;5310;48.638;9.060;2023-12-29T03:21:26;1.00;;;1.00;;
10523;SDS011;5310;48.638;9.060;2023-12-29T03:23:51;1.00;;;1.00;;
10523;SDS011;5310;48.638;9.060;2023-12-29T03:26:17;1.10;;;1.10;;
10523;SDS011;5310;48.638;9.060;2023-12-29T03:28:44;0.90;;;0.90;;
10523;SDS011;5310;48.638;9.060;2023-12-29T03:31:10;0.90;;;0.90;;
10523;SDS011;5310;48.638;9.060;2023-12-29T03:33:36;1.00;;;1.00;;
10523;SDS011;5310;48.638;9.060;2023-12-29T03:36:02;1.00;;;1.00;;
10523;SDS011;5310;48.638;9.060;2023-12-29T03:38:28;1.00;;;1.00;;
10523;SDS011;5310;48.638;9.060;2023-12-29T03:40:54;1.00;;;1.00;;
10523;SDS011;5310;48.638;9.060;2023-12-29T03:43:20;1.00;;;1.00;;
10523;SDS011;5310;48.638;9.060;2023-12-29T03:45:46;1.00;;;1.00;;
10523;SDS011;5310;48.638;9.060;2023-12-29T03:48:12;0.90;;;0.90;;
10523;SDS011;5310;48.638;9.060;2023-12-29T03:50:38;1.00;;;1.00;;
10523;SDS011;5310;48.638;9.060;2023-12-29T03:53:04;0.93;;;0.93;;
10523;SDS011;5310;48.638;9.060;2023-12-29T03:55:30;1.00;;;1.00;;
10523;SDS011;5310;48.638;9.060;2023-12-29T03:57:56;1.00;;;1.00;;
10523;SDS011;5310;48.638;9.060;2023-12-29T04:00:22;1.00;;;1.00;;
10523;SDS011;5310;48.638;9.060;2023-12-29T04:02:48;0.90;;;0.90;;
10523;SDS011;5310;48.638;9.060;2023-12-29T04:05:14;1.00;;;1.00;;
10523;SDS011;5310;48.638;9.060;2023-12-29T04:07:40;1.00;;;1.00;;
10523;SDS011;5310;48.638;9.060;2023-12-29T04:10:06;1.10;;;1.10;;
10523;SDS011;5310;48.638;9.060;2023-12-29T04:12:33;1.13;;;1.13;;
10523;SDS011;5310;48.638;9.060;2023-12-29T04:14:59;1.10;;;1.10;;
10523;SDS011;5310;48.638;9.060;2023-12-29T04:17:25;1.10;;;1.10;;
10523;SDS011;5310;48.638;9.060;2023-12-29T04:19:51;1.10;;;1.10;;
10523;SDS011;5310;48.638;9.060;2023-12-29T04:22:18;1.10;;;1.10;;
10523;SDS011;5310;48.638;9.060;2023-12-29T04:24:43;1.03;;;1.03;;
10523;SDS011;5310;48.638;9.060;2023-12-29T04:27:10;1.20;;;1.20;;
10523;SDS011;5310;48.638;9.060;2023-12-29T04:29:35;1.20;;;1.20;;
10523;SDS011;5310;48.638;9.060;2023-12-29T04:32:01;1.23;;;1.20;;
10523;SDS011;5310;48.638;9.060;2023-12-29T04:34:27;1.00;;;1.00;;
10523;SDS011;5310;48.638;9.060;2023-12-29T04:36:53;1.10;;;1.10;;
10523;SDS011;5310;48.638;9.060;2023-12-29T04:39:19;1.10;;;1.10;;
10523;SDS011;5310;48.638;9.060;2023-12-29T04:41:44;1.20;;;1.20;;
10523;SDS011;5310;48.638;9.060;2023-12-29T04:44:10;1.20;;;1.20;;
10523;SDS011;5310;48.638;9.060;2023-12-29T04:46:36;1.20;;;1.20;;
10523;SDS011;5310;48.638;9.060;2023-12-29T04:49:02;1.10;;;1.10;;
10523;SDS011;5310;48.638;9.060;2023-12-29T04:51:28;1.10;;;1.10;;
10523;SDS011;5310;48.638;9.060;2023-12-29T04:53:54;1.10;;;1.10;;
10523;SDS011;5310;48.638;9.060;2023-12-29T04:56:20;1.00;;;1.00;;
10523;SDS011;5310;48.638;9.060;2023-12-29T04:58:46;1.10;;;1.10;;
10523;SDS011;5310;48.638;9.060;2023-12-29T05:01:12;1.10;;;1.10;;
10523;SDS011;5310;48.638;9.060;2023-12-29T05:03:38;1.10;;;1.10;;
10523;SDS011;5310;48.638;9.060;2023-12-29T05:06:04;1.10;;;1.10;;
10523;SDS011;5310;48.638;9.060;2023-12-29T05:08:30;1.10;;;1.10;;
10523;SDS011;5310;48.638;9.060;2023-12-29T05:10:56;1.20;;;1.20;;
10523;SDS011;5310;48.638;9.060;2023-12-29T05:13:22;1.20;;;1.20;;
10523;SDS011;5310;48.638;9.060;2023-12-29T05:15:48;1.10;;;1.10;;
10523;SDS011;5310;48.638;9.060;2023-12-29T05:18:14;1.10;;;1.10;;
10523;SDS011;5310;48.638;9.060;2023-12-29T05:20:41;1.17;;;1.17;;
10523;SDS011;5310;48.638;9.060;2023-12-29T05:23:07;1.00;;;1.00;;
10523;SDS011;5310;48.638;9.060;2023-12-29T05:25:33;1.20;;;1.20;;
10523;SDS011;5310;48.638;9.060;2023-12-29T05:27:58;1.10;;;1.10;;
10523;SDS011;5310;48.638;9.060;2023-12-29T05:30:24;1.13;;;1.13;;
10523;SDS011;5310;48.638;9.060;2023-12-29T05:32:51;1.00;;;1.00;;
10523;SDS011;5310;48.638;9.060;2023-12-29T05:35:17;1.20;;;1.20;;
10523;SDS011;5310;48.638;9.060;2023-12-29T05:37:43;1.10;;;1.10;;
10523;SDS011;5310;48.638;9.060;2023-12-29T05:40:09;1.10;;;1.10;;
10523;SDS011;5310;48.638;9.060;2023-12-29T05:42:35;1.10;;;1.10;;
10523;SDS011;5310;48.638;9.060;2023-12-29T05:45:01;1.10;;;1.10;;
10523;SDS011;5310;48.638;9.060;2023-12-29T05:47:27;1.10;;;1.10;;
10523;SDS011;5310;48.638;9.060;2023-12-29T05:49:53;1.10;;;1.10;;
10523;SDS011;5310;48.638;9.060;2023-12-29T05:52:21;1.10;;;1.10;;
10523;SDS011;5310;48.638;9.060;2023-12-29T05:54:46;1.10;;;1.10;;
10523;SDS011;5310;48.638;9.060;2023-12-29T05:57:12;1.17;;;1.17;;
10523;SDS011;5310;48.638;9.060;2023-12-29T05:59:38;1.20;;;1.20;;
10523;SDS011;5310;48.638;9.060;2023-12-29T06:02:05;1.30;;;1.20;;
10523;SDS011;5310;48.638;9.060;2023-12-29T06:04:32;1.00;;;1.00;;
10523;SDS011;5310;48.638;9.060;2023-12-29T06:06:58;1.00;;;1.00;;
10523;SDS011;5310;48.638;9.060;2023-12-29T06:09:24;1.10;;;1.10;;
10523;SDS011;5310;48.638;9.060;2023-12-29T06:11:50;1.10;;;1.10;;
10523;SDS011;5310;48.638;9.060;2023-12-29T06:14:15;1.10;;;1.10;;
10523;SDS011;5310;48.638;9.060;2023-12-29T06:16:41;1.00;;;1.00;;
10523;SDS011;5310;48.638;9.060;2023-12-29T06:19:07;1.03;;;1.03;;
10523;SDS011;5310;48.638;9.060;2023-12-29T06:21:33;1.20;;;1.20;;
10523;SDS011;5310;48.638;9.060;2023-12-29T06:23:59;1.10;;;1.10;;
10523;SDS011;5310;48.638;9.060;2023-12-29T06:26:25;1.17;;;1.17;;
10523;SDS011;5310;48.638;9.060;2023-12-29T06:28:51;1.20;;;1.20;;
10523;SDS011;5310;48.638;9.060;2023-12-29T06:31:17;1.20;;;1.20;;
10523;SDS011;5310;48.638;9.060;2023-12-29T06:33:44;1.17;;;1.17;;
10523;SDS011;5310;48.638;9.060;2023-12-29T06:36:10;1.10;;;1.10;;
10523;SDS011;5310;48.638;9.060;2023-12-29T06:38:37;1.10;;;1.10;;
10523;SDS011;5310;48.638;9.060;2023-12-29T06:41:03;1.20;;;1.20;;
10523;SDS011;5310;48.638;9.060;2023-12-29T06:43:30;1.20;;;1.20;;
10523;SDS011;5310;48.638;9.060;2023-12-29T06:45:55;1.00;;;1.00;;
10523;SDS011;5310;48.638;9.060;2023-12-29T06:48:21;1.10;;;1.10;;
10523;SDS011;5310;48.638;9.060;2023-12-29T06:50:47;1.20;;;1.20;;
10523;SDS011;5310;48.638;9.060;2023-12-29T06:53:13;1.20;;;1.20;;
10523;SDS011;5310;48.638;9.060;2023-12-29T06:55:39;1.20;;;1.20;;
10523;SDS011;5310;48.638;9.060;2023-12-29T06:58:05;1.10;;;1.10;;
10523;SDS011;5310;48.638;9.060;2023-12-29T07:00:31;1.10;;;1.10;;
10523;SDS011;5310;48.638;9.060;2023-12-29T07:02:58;1.20;;;1.20;;
10523;SDS011;5310;48.638;9.060;2023-12-29T07:05:24;1.20;;;1.20;;
10523;SDS011;5310;48.638;9.060;2023-12-29T07:07:50;1.10;;;1.10;;
10523;SDS011;5310;48.638;9.060;2023-12-29T07:10:16;1.20;;;1.20;;
10523;SDS011;5310;48.638;9.060;2023-12-29T07:12:42;1.30;;;1.30;;
10523;SDS011;5310;48.638;9.060;2023-12-29T07:15:08;1.10;;;1.10;;
10523;SDS011;5310;48.638;9.060;2023-12-29T07:17:33;1.10;;;1.10;;
10523;SDS011;5310;48.638;9.060;2023-12-29T07:19:59;1.10;;;1.10;;
10523;SDS011;5310;48.638;9.060;2023-12-29T07:22:26;1.20;;;1.20;;
10523;SDS011;5310;48.638;9.060;2023-12-29T07:24:51;1.10;;;1.10;;
10523;SDS011;5310;48.638;9.060;2023-12-29T07:27:17;1.10;;;1.10;;
10523;SDS011;5310;48.638;9.060;2023-12-29T07:29:43;1.20;;;1.20;;
10523;SDS011;5310;48.638;9.060;2023-12-29T07:32:09;1.10;;;1.10;;
10523;SDS011;5310;48.638;9.060;2023-12-29T07:34:35;1.20;;;1.20;;
10523;SDS011;5310;48.638;9.060;2023-12-29T07:37:01;1.10;;;1.10;;
10523;SDS011;5310;48.638;9.060;2023-12-29T07:39:27;1.10;;;1.10;;
10523;SDS011;5310;48.638;9.060;2023-12-29T07:41:53;1.00;;;1.00;;
10523;SDS011;5310;48.638;9.060;2023-12-29T07:44:19;1.10;;;1.10;;
10523;SDS011;5310;48.638;9.060;2023-12-29T07:46:45;1.20;;;1.20;;
10523;SDS011;5310;48.638;9.060;2023-12-29T07:49:11;1.10;;;1.10;;
10523;SDS011;5310;48.638;9.060;2023-12-29T07:51:40;1.20;;;1.20;;
10523;SDS011;5310;48.638;9.060;2023-12-29T07:54:07;1.10;;;1.10;;
10523;SDS011;5310;48.638;9.060;2023-12-29T07:56:33;1.00;;;1.00;;
10523;SDS011;5310;48.638;9.060;2023-12-29T07:58:59;1.10;;;1.10;;
10523;SDS011;5310;48.638;9.060;2023-12-29T08:01:25;1.20;;;1.20;;
10523;SDS011;5310;48.638;9.060;2023-12-29T08:03:52;1.20;;;1.20;;
10523;SDS011;5310;48.638;9.060;2023-12-29T08:06:17;1.10;;;1.10;;
10523;SDS011;5310;48.638;9.060;2023-12-29T08:08:43;1.30;;;1.30;;
10523;SDS011;5310;48.638;9.060;2023-12-29T08:11:13;1.20;;;1.20;;
10523;SDS011;5310;48.638;9.060;2023-12-29T08:13:47;1.20;;;1.20;;
10523;SDS011;5310;48.638;9.060;2023-12-29T08:16:13;1.20;;;1.20;;
10523;SDS011;5310;48.638;9.060;2023-12-29T08:18:39;1.30;;;1.30;;
10523;SDS011;5310;48.638;9.060;2023-12-29T08:21:05;1.20;;;1.20;;
10523;SDS011;5310;48.638;9.060;2023-12-29T08:23:31;1.30;;;1.30;;
10523;SDS011;5310;48.638;9.060;2023-12-29T08:25:57;1.20;;;1.20;;
10523;SDS011;5310;48.638;9.060;2023-12-29T08:28:26;1.20;;;1.20;;
10523;SDS011;5310;48.638;9.060;2023-12-29T08:30:52;1.20;;;1.20;;
10523;SDS011;5310;48.638;9.060;2023-12-29T08:33:18;1.10;;;1.10;;
10523;SDS011;5310;48.638;9.060;2023-12-29T08:35:43;1.20;;;1.20;;
10523;SDS011;5310;48.638;9.060;2023-12-29T08:38:10;1.20;;;1.20;;
10523;SDS011;5310;48.638;9.060;2023-12-29T08:40:37;1.10;;;1.10;;
10523;SDS011;5310;48.638;9.060;2023-12-29T08:43:03;1.10;;;1.10;;
10523;SDS011;5310;48.638;9.060;2023-12-29T08:45:29;1.10;;;1.10;;
10523;SDS011;5310;48.638;9.060;2023-12-29T08:47:55;1.10;;;1.10;;
10523;SDS011;5310;48.638;9.060;2023-12-29T08:50:21;1.27;;;1.27;;
10523;SDS011;5310;48.638;9.060;2023-12-29T08:52:47;1.20;;;1.20;;
10523;SDS011;5310;48.638;9.060;2023-12-29T08:55:13;1.10;;;1.10;;
10523;SDS011;5310;48.638;9.060;2023-12-29T08:57:39;1.20;;;1.20;;
10523;SDS011;5310;48.638;9.060;2023-12-29T09:00:05;1.20;;;1.20;;
10523;SDS011;5310;48.638;9.060;2023-12-29T09:02:31;1.20;;;1.20;;
10523;SDS011;5310;48.638;9.060;2023-12-29T09:04:57;1.13;;;1.13;;
10523;SDS011;5310;48.638;9.060;2023-12-29T09:07:23;1.27;;;1.27;;
10523;SDS011;5310;48.638;9.060;2023-12-29T09:09:49;1.20;;;1.20;;
10523;SDS011;5310;48.638;9.060;2023-12-29T09:12:16;1.20;;;1.20;;
10523;SDS011;5310;48.638;9.060;2023-12-29T09:14:42;1.27;;;1.27;;
10523;SDS011;5310;48.638;9.060;2023-12-29T09:17:08;1.20;;;1.20;;
10523;SDS011;5310;48.638;9.060;2023-12-29T09:19:34;1.20;;;1.20;;
10523;SDS011;5310;48.638;9.060;2023-12-29T09:22:00;1.33;;;1.23;;
10523;SDS011;5310;48.638;9.060;2023-12-29T09:24:26;1.20;;;1.20;;
10523;SDS011;5310;48.638;9.060;2023-12-29T09:26:52;1.23;;;1.23;;
10523;SDS011;5310;48.638;9.060;2023-12-29T09:29:19;1.10;;;1.10;;
10523;SDS011;5310;48.638;9.060;2023-12-29T09:31:45;1.10;;;1.10;;
10523;SDS011;5310;48.638;9.060;2023-12-29T09:34:11;1.20;;;1.20;;
10523;SDS011;5310;48.638;9.060;2023-12-29T09:36:37;1.20;;;1.20;;
10523;SDS011;5310;48.638;9.060;2023-12-29T09:39:03;1.20;;;1.20;;
10523;SDS011;5310;48.638;9.060;2023-12-29T09:41:29;1.30;;;1.30;;
10523;SDS011;5310;48.638;9.060;2023-12-29T09:43:58;1.10;;;1.10;;
10523;SDS011;5310;48.638;9.060;2023-12-29T09:46:26;1.10;;;1.10;;
10523;SDS011;5310;48.638;9.060;2023-12-29T09:48:57;1.10;;;1.10;;
10523;SDS011;5310;48.638;9.060;2023-12-29T09:51:23;1.10;;;1.10;;
10523;SDS011;5310;48.638;9.060;2023-12-29T09:53:50;1.00;;;1.00;;
10523;SDS011;5310;48.638;9.060;2023-12-29T09:56:17;1.10;;;1.10;;
10523;SDS011;5310;48.638;9.060;2023-12-29T09:58:43;1.20;;;1.20;;
10523;SDS011;5310;48.638;9.060;2023-12-29T10:01:11;1.17;;;1.17;;
10523;SDS011;5310;48.638;9.060;2023-12-29T10:03:38;1.10;;;1.10;;
10523;SDS011;5310;48.638;9.060;2023-12-29T10:06:06;1.17;;;1.17;;
10523;SDS011;5310;48.638;9.060;2023-12-29T10:08:34;1.10;;;1.10;;
10523;SDS011;5310;48.638;9.060;2023-12-29T10:11:02;1.30;;;1.30;;
10523;SDS011;5310;48.638;9.060;2023-12-29T10:13:30;1.20;;;1.20;;
10523;SDS011;5310;48.638;9.060;2023-12-29T10:16:01;1.10;;;1.10;;
10523;SDS011;5310;48.638;9.060;2023-12-29T10:19:17;1.20;;;1.20;;
10523;SDS011;5310;48.638;9.060;2023-12-29T10:21:32;1.23;;;1.23;;
10523;SDS011;5310;48.638;9.060;2023-12-29T10:24:18;1.20;;;1.20;;
10523;SDS011;5310;48.638;9.060;2023-12-29T10:26:46;1.17;;;1.17;;
10523;SDS011;5310;48.638;9.060;2023-12-29T10:29:12;1.30;;;1.30;;
10523;SDS011;5310;48.638;9.060;2023-12-29T10:31:38;1.10;;;1.10;;
10523;SDS011;5310;48.638;9.060;2023-12-29T10:34:20;1.20;;;1.20;;
10523;SDS011;5310;48.638;9.060;2023-12-29T10:36:53;1.10;;;1.10;;
10523;SDS011;5310;48.638;9.060;2023-12-29T10:39:19;1.10;;;1.10;;
10523;SDS011;5310;48.638;9.060;2023-12-29T10:41:45;1.20;;;1.20;;
10523;SDS011;5310;48.638;9.060;2023-12-29T10:44:11;1.20;;;1.20;;
10523;SDS011;5310;48.638;9.060;2023-12-29T10:46:37;1.20;;;1.20;;
10523;SDS011;5310;48.638;9.060;2023-12-29T10:49:10;1.10;;;1.10;;
10523;SDS011;5310;48.638;9.060;2023-12-29T10:51:36;1.20;;;1.20;;
10523;SDS011;5310;48.638;9.060;2023-12-29T10:54:03;1.10;;;1.10;;
10523;SDS011;5310;48.638;9.060;2023-12-29T10:56:29;1.13;;;1.13;;
10523;SDS011;5310;48.638;9.060;2023-12-29T10:58:59;1.10;;;1.10;;
10523;SDS011;5310;48.638;9.060;2023-12-29T11:01:25;1.10;;;1.10;;
10523;SDS011;5310;48.638;9.060;2023-12-29T11:04:04;1.10;;;1.10;;
10523;SDS011;5310;48.638;9.060;2023-12-29T11:06:39;1.00;;;1.00;;
10523;SDS011;5310;48.638;9.060;2023-12-29T11:09:06;1.00;;;1.00;;
10523;SDS011;5310;48.638;9.060;2023-12-29T11:11:32;1.10;;;1.10;;
10523;SDS011;5310;48.638;9.060;2023-12-29T11:14:01;1.10;;;1.10;;
10523;SDS011;5310;48.638;9.060;2023-12-29T11:16:27;1.10;;;1.10;;
10523;SDS011;5310;48.638;9.060;2023-12-29T11:18:53;1.07;;;1.07;;
10523;SDS011;5310;48.638;9.060;2023-12-29T11:21:22;1.00;;;1.00;;
10523;SDS011;5310;48.638;9.060;2023-12-29T11:23:49;1.10;;;1.10;;
10523;SDS011;5310;48.638;9.060;2023-12-29T11:26:15;1.10;;;1.10;;
10523;SDS011;5310;48.638;9.060;2023-12-29T11:28:41;1.17;;;1.17;;
10523;SDS011;5310;48.638;9.060;2023-12-29T11:31:07;1.10;;;1.10;;
10523;SDS011;5310;48.638;9.060;2023-12-29T11:33:35;1.13;;;1.13;;
10523;SDS011;5310;48.638;9.060;2023-12-29T11:36:14;1.23;;;1.23;;
10523;SDS011;5310;48.638;9.060;2023-12-29T11:38:52;1.20;;;1.20;;
10523;SDS011;5310;48.638;9.060;2023-12-29T11:43:59;1.20;;;1.20;;
10523;SDS011;5310;48.638;9.060;2023-12-29T11:49:04;1.20;;;1.20;;
10523;SDS011;5310;48.638;9.060;2023-12-29T11:51:34;1.20;;;1.20;;
10523;SDS011;5310;48.638;9.060;2023-12-29T11:54:01;1.10;;;1.10;;
10523;SDS011;5310;48.638;9.060;2023-12-29T11:56:30;1.10;;;1.10;;
10523;SDS011;5310;48.638;9.060;2023-12-29T11:59:19;1.20;;;1.20;;
10523;SDS011;5310;48.638;9.060;2023-12-29T12:07:04;1.20;;;1.20;;
10523;SDS011;5310;48.638;9.060;2023-12-29T12:09:31;1.10;;;1.10;;
10523;SDS011;5310;48.638;9.060;2023-12-29T12:12:00;1.40;;;1.30;;
10523;SDS011;5310;48.638;9.060;2023-12-29T12:14:43;1.23;;;1.23;;
10523;SDS011;5310;48.638;9.060;2023-12-29T12:17:09;1.20;;;1.20;;
10523;SDS011;5310;48.638;9.060;2023-12-29T12:19:35;1.30;;;1.30;;
10523;SDS011;5310;48.638;9.060;2023-12-29T12:22:01;1.40;;;1.30;;
10523;SDS011;5310;48.638;9.060;2023-12-29T12:24:27;1.10;;;1.10;;
10523;SDS011;5310;48.638;9.060;2023-12-29T12:26:54;1.30;;;1.30;;
10523;SDS011;5310;48.638;9.060;2023-12-29T12:29:20;1.20;;;1.20;;
10523;SDS011;5310;48.638;9.060;2023-12-29T12:31:52;1.10;;;1.10;;
10523;SDS011;5310;48.638;9.060;2023-12-29T12:34:18;1.03;;;1.03;;
10523;SDS011;5310;48.638;9.060;2023-12-29T12:36:48;1.20;;;1.20;;
10523;SDS011;5310;48.638;9.060;2023-12-29T12:39:15;1.10;;;1.10;;
10523;SDS011;5310;48.638;9.060;2023-12-29T12:41:41;1.20;;;1.20;;
10523;SDS011;5310;48.638;9.060;2023-12-29T12:44:10;1.10;;;1.10;;
10523;SDS011;5310;48.638;9.060;2023-12-29T12:46:40;1.20;;;1.20;;
10523;SDS011;5310;48.638;9.060;2023-12-29T12:49:07;1.10;;;1.10;;
10523;SDS011;5310;48.638;9.060;2023-12-29T12:51:33;1.10;;;1.10;;
10523;SDS011;5310;48.638;9.060;2023-12-29T12:53:59;1.20;;;1.20;;
10523;SDS011;5310;48.638;9.060;2023-12-29T12:56:25;1.10;;;1.10;;
10523;SDS011;5310;48.638;9.060;2023-12-29T12:58:54;1.20;;;1.20;;
10523;SDS011;5310;48.638;9.060;2023-12-29T13:01:20;1.13;;;1.13;;
10523;SDS011;5310;48.638;9.060;2023-12-29T13:03:46;1.20;;;1.20;;
10523;SDS011;5310;48.638;9.060;2023-12-29T13:06:12;1.20;;;1.20;;
10523;SDS011;5310;48.638;9.060;2023-12-29T13:08:38;1.20;;;1.20;;
10523;SDS011;5310;48.638;9.060;2023-12-29T13:11:04;1.20;;;1.20;;
10523;SDS011;5310;48.638;9.060;2023-12-29T13:13:40;1.20;;;1.20;;
10523;SDS011;5310;48.638;9.060;2023-12-29T13:16:07;1.10;;;1.10;;
10523;SDS011;5310;48.638;9.060;2023-12-29T13:18:33;1.20;;;1.20;;
10523;SDS011;5310;48.638;9.060;2023-12-29T13:21:00;1.20;;;1.20;;
10523;SDS011;5310;48.638;9.060;2023-12-29T13:23:27;1.23;;;1.23;;
10523;SDS011;5310;48.638;9.060;2023-12-29T13:25:57;1.20;;;1.20;;
10523;SDS011;5310;48.638;9.060;2023-12-29T13:28:24;1.20;;;1.20;;
10523;SDS011;5310;48.638;9.060;2023-12-29T13:30:51;1.20;;;1.20;;
10523;SDS011;5310;48.638;9.060;2023-12-29T13:36:18;1.27;;;1.27;;
10523;SDS011;5310;48.638;9.060;2023-12-29T13:38:50;1.10;;;1.10;;
10523;SDS011;5310;48.638;9.060;2023-12-29T13:41:20;1.13;;;1.13;;
10523;SDS011;5310;48.638;9.060;2023-12-29T13:43:47;1.20;;;1.20;;
10523;SDS011;5310;48.638;9.060;2023-12-29T13:46:14;1.10;;;1.10;;
10523;SDS011;5310;48.638;9.060;2023-12-29T13:48:41;1.13;;;1.13;;
10523;SDS011;5310;48.638;9.060;2023-12-29T13:51:08;1.17;;;1.17;;
10523;SDS011;5310;48.638;9.060;2023-12-29T13:53:34;1.20;;;1.20;;
10523;SDS011;5310;48.638;9.060;2023-12-29T13:56:07;1.20;;;1.20;;
10523;SDS011;5310;48.638;9.060;2023-12-29T13:58:33;1.20;;;1.20;;
10523;SDS011;5310;48.638;9.060;2023-12-29T14:00:59;1.20;;;1.20;;
10523;SDS011;5310;48.638;9.060;2023-12-29T14:03:34;1.23;;;1.23;;
10523;SDS011;5310;48.638;9.060;2023-12-29T14:06:22;1.30;;;1.30;;
10523;SDS011;5310;48.638;9.060;2023-12-29T14:08:51;1.30;;;1.30;;
10523;SDS011;5310;48.638;9.060;2023-12-29T14:11:17;1.73;;;1.63;;
10523;SDS011;5310;48.638;9.060;2023-12-29T14:13:44;1.20;;;1.20;;
10523;SDS011;5310;48.638;9.060;2023-12-29T14:16:11;1.20;;;1.20;;
10523;SDS011;5310;48.638;9.060;2023-12-29T14:21:27;1.10;;;1.10;;
10523;SDS011;5310;48.638;9.060;2023-12-29T14:23:58;1.20;;;1.20;;
10523;SDS011;5310;48.638;9.060;2023-12-29T14:26:35;1.10;;;1.10;;
10523;SDS011;5310;48.638;9.060;2023-12-29T14:29:02;1.30;;;1.30;;
10523;SDS011;5310;48.638;9.060;2023-12-29T14:31:35;1.20;;;1.20;;
10523;SDS011;5310;48.638;9.060;2023-12-29T14:34:01;1.10;;;1.10;;
10523;SDS011;5310;48.638;9.060;2023-12-29T14:36:28;1.20;;;1.20;;
10523;SDS011;5310;48.638;9.060;2023-12-29T14:38:54;1.20;;;1.20;;
10523;SDS011;5310;48.638;9.060;2023-12-29T14:41:19;1.23;;;1.23;;
10523;SDS011;5310;48.638;9.060;2023-12-29T14:43:45;1.20;;;1.20;;
10523;SDS011;5310;48.638;9.060;2023-12-29T14:46:11;1.20;;;1.20;;
10523;SDS011;5310;48.638;9.060;2023-12-29T14:48:37;1.10;;;1.10;;
10523;SDS011;5310;48.638;9.060;2023-12-29T14:51:04;1.40;;;1.40;;
10523;SDS011;5310;48.638;9.060;2023-12-29T14:53:30;1.20;;;1.20;;
10523;SDS011;5310;48.638;9.060;2023-12-29T14:55:56;1.23;;;1.23;;
10523;SDS011;5310;48.638;9.060;2023-12-29T14:58:22;1.10;;;1.10;;
10523;SDS011;5310;48.638;9.060;2023-12-29T15:00:48;1.10;;;1.10;;
10523;SDS011;5310;48.638;9.060;2023-12-29T15:03:14;1.20;;;1.20;;
10523;SDS011;5310;48.638;9.060;2023-12-29T15:05:40;1.20;;;1.20;;
10523;SDS011;5310;48.638;9.060;2023-12-29T15:08:07;1.10;;;1.10;;
10523;SDS011;5310;48.638;9.060;2023-12-29T15:10:34;1.20;;;1.20;;
10523;SDS011;5310;48.638;9.060;2023-12-29T15:13:00;1.03;;;1.03;;
10523;SDS011;5310;48.638;9.060;2023-12-29T15:15:26;1.10;;;1.10;;
10523;SDS011;5310;48.638;9.060;2023-12-29T15:17:52;1.10;;;1.10;;
10523;SDS011;5310;48.638;9.060;2023-12-29T15:20:18;1.10;;;1.10;;